首页
METAR-TAF:

METAR-TAF

机场 :

馬丁尼克-亞米-凱薩國際機場

法兰西堡, 馬提尼克

纬度: 14-36N, 经度: 061-00W, 海拔: 5米

当前天气观测

该预报发布于18分钟前的11:30 UTC
风速4节,风向东北,在北转西北之间变化
温度 26°C
湿度 84%
气压 1012 hPa
能见度10公里或以上
散云层高于2300英尺
散云层高于5200英尺
多云层高于6200英尺

METAR: TFFF 191130Z AUTO 04004KT 340V100 9999 SCT023 SCT052 BKN062 26/23 Q1012 TEMPO 4000 SHRA SCT018TCU

时间: 07:48 (11:48 UTC)

预报

该预报发布于48分钟前的11:00 UTC
预报有效从19日的 12点(UTC)到 20日的 12点(UTC)
风速8节,风向
能见度10公里或以上
散云层高于2500英尺
几率 30% :
短暂存在
从 19日的 12点(UTC)到 20日的 12点(UTC)
能見度: 4000
散云层高于1800英尺, 塔状积云.
阵雨

TAF: TFFF 191100Z 1912/2012 08008KT 9999 SCT025 PROB30 TEMPO 1912/2012 4000 SHRA SCT018TCU

超过4000个机场的气象观测和天气预报(METAR&TAF报告)。

可查询的气象台以黄色和红色小点在地图上表示。

将鼠标移到小点上方,可查看气象台名称。

然后点击查看天气观测和预报。

如需切换地图:点击带黑十字的绿色按钮放大地图;点击带横线的绿色按钮缩小地图;或者点击绿色箭头查看邻近地区的地图。


METAR-TAF: